OMAA/AUH METAR and TAF weather

Enter ICAO airport designator
Station Type Date Time Source
OMAA METAR 2020/07/10 00:00 UTC NOAA

OMAA 100000Z 36002KT CAVOK 34/25 Q0995 NOSIG


Station Type Date Time Source
OMAA Decoded METAR 2020/07/10 00:00 UTC NOAA

Abu Dhabi International Airport, United Arab Emirates (OMAA) 24-26N 054-39E 27M
Jul 09, 2020 - 08:00 PM EDT / 2020.07.10 0000 UTC
Wind: from the N (360 degrees) at 2 MPH (2 KT):0
Visibility: greater than 7 mile(s):0
Temperature: 93 F (34 C)
Heat index: 106.7 F (41.5 C):1
Dew Point: 77 F (25 C)
Relative Humidity: 59%
Pressure (altimeter): 29.38 in. Hg (0995 hPa)
ob: OMAA 100000Z 36002KT CAVOK 34/25 Q0995 NOSIG
cycle: 0

Station Type Date Time Source
OMAA TAF 2020/07/09 18:03 UTC NOAA

TAF OMAA 091700Z 0918/1100 35010KT 8000 NSC
BECMG 0918/0920 06005KT
BECMG 1001/1003 16013KT PROB30
TEMPO 1003/1006 4000 DU
BECMG 1007/1009 33014KT
BECMG 1016/1018 07005KT

Example: see airport list